sensor_id;sensor_type;location;lat;lon;timestamp;P1;durP1;ratioP1;P2;durP2;ratioP2
18732;SDS011;9495;51.210;2.934;2022-11-24T00:01:16;15.03;;;3.53;;
18732;SDS011;9495;51.210;2.934;2022-11-24T00:03:46;16.87;;;3.13;;
18732;SDS011;9495;51.210;2.934;2022-11-24T00:06:19;17.63;;;3.53;;
18732;SDS011;9495;51.210;2.934;2022-11-24T00:08:48;13.60;;;3.20;;
18732;SDS011;9495;51.210;2.934;2022-11-24T00:11:19;19.47;;;3.67;;
18732;SDS011;9495;51.210;2.934;2022-11-24T00:13:48;13.90;;;3.20;;
18732;SDS011;9495;51.210;2.934;2022-11-24T00:16:17;19.47;;;3.90;;
18732;SDS011;9495;51.210;2.934;2022-11-24T00:18:47;19.10;;;3.60;;
18732;SDS011;9495;51.210;2.934;2022-11-24T00:21:16;19.63;;;4.17;;
18732;SDS011;9495;51.210;2.934;2022-11-24T00:23:46;23.07;;;3.77;;
18732;SDS011;9495;51.210;2.934;2022-11-24T00:26:16;20.83;;;3.57;;
18732;SDS011;9495;51.210;2.934;2022-11-24T00:28:46;19.20;;;4.20;;
18732;SDS011;9495;51.210;2.934;2022-11-24T00:31:16;26.00;;;4.73;;
18732;SDS011;9495;51.210;2.934;2022-11-24T00:33:46;24.00;;;3.97;;
18732;SDS011;9495;51.210;2.934;2022-11-24T00:36:15;25.03;;;4.40;;
18732;SDS011;9495;51.210;2.934;2022-11-24T00:38:44;26.63;;;4.20;;
18732;SDS011;9495;51.210;2.934;2022-11-24T00:41:13;17.50;;;4.07;;
18732;SDS011;9495;51.210;2.934;2022-11-24T00:43:42;28.97;;;3.97;;
18732;SDS011;9495;51.210;2.934;2022-11-24T00:46:11;29.57;;;5.30;;
18732;SDS011;9495;51.210;2.934;2022-11-24T00:48:40;25.47;;;5.00;;
18732;SDS011;9495;51.210;2.934;2022-11-24T00:51:09;25.87;;;4.07;;
18732;SDS011;9495;51.210;2.934;2022-11-24T00:53:38;22.83;;;4.60;;
18732;SDS011;9495;51.210;2.934;2022-11-24T00:56:08;23.37;;;4.13;;
18732;SDS011;9495;51.210;2.934;2022-11-24T00:58:37;24.47;;;4.00;;
18732;SDS011;9495;51.210;2.934;2022-11-24T01:01:09;16.10;;;3.60;;
18732;SDS011;9495;51.210;2.934;2022-11-24T01:03:39;14.67;;;3.40;;
18732;SDS011;9495;51.210;2.934;2022-11-24T01:06:09;14.07;;;3.50;;
18732;SDS011;9495;51.210;2.934;2022-11-24T01:08:38;15.80;;;3.10;;
18732;SDS011;9495;51.210;2.934;2022-11-24T01:11:08;12.17;;;2.47;;
18732;SDS011;9495;51.210;2.934;2022-11-24T01:13:38;9.87;;;2.67;;
18732;SDS011;9495;51.210;2.934;2022-11-24T01:16:13;14.70;;;2.80;;
18732;SDS011;9495;51.210;2.934;2022-11-24T01:18:43;10.33;;;2.40;;
18732;SDS011;9495;51.210;2.934;2022-11-24T01:21:12;15.97;;;3.47;;
18732;SDS011;9495;51.210;2.934;2022-11-24T01:23:41;10.87;;;2.70;;
18732;SDS011;9495;51.210;2.934;2022-11-24T01:26:10;16.60;;;3.20;;
18732;SDS011;9495;51.210;2.934;2022-11-24T01:28:39;17.47;;;2.90;;
18732;SDS011;9495;51.210;2.934;2022-11-24T01:31:14;8.27;;;1.50;;
18732;SDS011;9495;51.210;2.934;2022-11-24T01:33:43;11.40;;;2.93;;
18732;SDS011;9495;51.210;2.934;2022-11-24T01:36:11;17.47;;;2.77;;
18732;SDS011;9495;51.210;2.934;2022-11-24T01:38:40;14.50;;;2.40;;
18732;SDS011;9495;51.210;2.934;2022-11-24T01:41:09;11.63;;;2.17;;
18732;SDS011;9495;51.210;2.934;2022-11-24T01:43:39;11.27;;;1.67;;
18732;SDS011;9495;51.210;2.934;2022-11-24T01:46:11;10.27;;;1.53;;
18732;SDS011;9495;51.210;2.934;2022-11-24T01:48:55;13.57;;;2.20;;
18732;SDS011;9495;51.210;2.934;2022-11-24T01:51:28;7.60;;;1.83;;
18732;SDS011;9495;51.210;2.934;2022-11-24T01:54:00;8.20;;;1.30;;
18732;SDS011;9495;51.210;2.934;2022-11-24T01:56:31;8.67;;;1.57;;
18732;SDS011;9495;51.210;2.934;2022-11-24T01:59:03;9.17;;;1.50;;
18732;SDS011;9495;51.210;2.934;2022-11-24T02:01:34;5.47;;;1.20;;
18732;SDS011;9495;51.210;2.934;2022-11-24T02:04:04;6.60;;;1.20;;
18732;SDS011;9495;51.210;2.934;2022-11-24T02:06:37;7.70;;;1.27;;
18732;SDS011;9495;51.210;2.934;2022-11-24T02:09:10;5.80;;;1.20;;
18732;SDS011;9495;51.210;2.934;2022-11-24T02:11:41;7.37;;;1.93;;
18732;SDS011;9495;51.210;2.934;2022-11-24T02:14:11;7.73;;;1.30;;
18732;SDS011;9495;51.210;2.934;2022-11-24T02:16:46;6.87;;;1.70;;
18732;SDS011;9495;51.210;2.934;2022-11-24T02:19:17;3.20;;;0.97;;
18732;SDS011;9495;51.210;2.934;2022-11-24T02:21:54;7.73;;;1.90;;
18732;SDS011;9495;51.210;2.934;2022-11-24T02:24:24;6.27;;;1.40;;
18732;SDS011;9495;51.210;2.934;2022-11-24T02:27:03;7.83;;;1.30;;
18732;SDS011;9495;51.210;2.934;2022-11-24T02:29:31;6.57;;;1.13;;
18732;SDS011;9495;51.210;2.934;2022-11-24T02:32:00;3.20;;;1.07;;
18732;SDS011;9495;51.210;2.934;2022-11-24T02:34:31;4.23;;;1.23;;
18732;SDS011;9495;51.210;2.934;2022-11-24T02:37:00;4.27;;;1.10;;
18732;SDS011;9495;51.210;2.934;2022-11-24T02:39:29;5.80;;;1.30;;
18732;SDS011;9495;51.210;2.934;2022-11-24T02:41:57;4.10;;;0.97;;
18732;SDS011;9495;51.210;2.934;2022-11-24T02:44:33;5.33;;;1.60;;
18732;SDS011;9495;51.210;2.934;2022-11-24T02:47:05;8.07;;;1.50;;
18732;SDS011;9495;51.210;2.934;2022-11-24T02:49:34;5.90;;;1.03;;
18732;SDS011;9495;51.210;2.934;2022-11-24T02:52:03;5.60;;;1.47;;
18732;SDS011;9495;51.210;2.934;2022-11-24T02:54:32;5.97;;;1.47;;
18732;SDS011;9495;51.210;2.934;2022-11-24T02:57:01;4.67;;;1.30;;
18732;SDS011;9495;51.210;2.934;2022-11-24T02:59:29;2.77;;;0.87;;
18732;SDS011;9495;51.210;2.934;2022-11-24T03:01:59;7.47;;;1.50;;
18732;SDS011;9495;51.210;2.934;2022-11-24T03:04:28;5.10;;;0.90;;
18732;SDS011;9495;51.210;2.934;2022-11-24T03:06:57;4.10;;;1.03;;
18732;SDS011;9495;51.210;2.934;2022-11-24T03:09:26;4.43;;;0.80;;
18732;SDS011;9495;51.210;2.934;2022-11-24T03:11:55;6.30;;;1.03;;
18732;SDS011;9495;51.210;2.934;2022-11-24T03:14:23;7.77;;;1.50;;
18732;SDS011;9495;51.210;2.934;2022-11-24T03:16:52;5.37;;;1.20;;
18732;SDS011;9495;51.210;2.934;2022-11-24T03:19:21;4.70;;;1.17;;
18732;SDS011;9495;51.210;2.934;2022-11-24T03:21:49;4.30;;;0.77;;
18732;SDS011;9495;51.210;2.934;2022-11-24T03:24:17;4.87;;;0.97;;
18732;SDS011;9495;51.210;2.934;2022-11-24T03:26:46;6.77;;;1.00;;
18732;SDS011;9495;51.210;2.934;2022-11-24T03:29:14;4.70;;;1.20;;
18732;SDS011;9495;51.210;2.934;2022-11-24T03:31:43;4.70;;;1.23;;
18732;SDS011;9495;51.210;2.934;2022-11-24T03:34:12;7.30;;;1.30;;
18732;SDS011;9495;51.210;2.934;2022-11-24T03:36:41;8.60;;;1.50;;
18732;SDS011;9495;51.210;2.934;2022-11-24T03:39:10;4.77;;;1.43;;
18732;SDS011;9495;51.210;2.934;2022-11-24T03:41:38;9.83;;;1.80;;
18732;SDS011;9495;51.210;2.934;2022-11-24T03:44:06;5.67;;;1.40;;
18732;SDS011;9495;51.210;2.934;2022-11-24T03:46:34;13.60;;;2.03;;
18732;SDS011;9495;51.210;2.934;2022-11-24T03:49:03;9.50;;;1.70;;
18732;SDS011;9495;51.210;2.934;2022-11-24T03:51:32;13.77;;;2.27;;
18732;SDS011;9495;51.210;2.934;2022-11-24T03:54:01;9.47;;;2.03;;
18732;SDS011;9495;51.210;2.934;2022-11-24T03:56:29;9.57;;;1.80;;
18732;SDS011;9495;51.210;2.934;2022-11-24T03:58:57;11.63;;;2.07;;
18732;SDS011;9495;51.210;2.934;2022-11-24T04:01:26;11.80;;;2.17;;
18732;SDS011;9495;51.210;2.934;2022-11-24T04:03:54;14.57;;;2.20;;
18732;SDS011;9495;51.210;2.934;2022-11-24T04:06:23;9.47;;;1.87;;
18732;SDS011;9495;51.210;2.934;2022-11-24T04:08:53;17.27;;;3.03;;
18732;SDS011;9495;51.210;2.934;2022-11-24T04:11:21;11.73;;;2.20;;
18732;SDS011;9495;51.210;2.934;2022-11-24T04:14:06;9.33;;;1.90;;
18732;SDS011;9495;51.210;2.934;2022-11-24T04:16:39;11.90;;;1.90;;
18732;SDS011;9495;51.210;2.934;2022-11-24T04:19:07;10.83;;;2.17;;
18732;SDS011;9495;51.210;2.934;2022-11-24T04:21:36;9.30;;;2.00;;
18732;SDS011;9495;51.210;2.934;2022-11-24T04:24:06;9.70;;;2.10;;
18732;SDS011;9495;51.210;2.934;2022-11-24T04:26:34;11.87;;;1.80;;
18732;SDS011;9495;51.210;2.934;2022-11-24T04:29:02;14.27;;;2.47;;
18732;SDS011;9495;51.210;2.934;2022-11-24T04:31:31;12.47;;;2.00;;
18732;SDS011;9495;51.210;2.934;2022-11-24T04:33:59;16.20;;;2.40;;
18732;SDS011;9495;51.210;2.934;2022-11-24T04:36:28;11.77;;;2.17;;
18732;SDS011;9495;51.210;2.934;2022-11-24T04:38:56;15.70;;;2.53;;
18732;SDS011;9495;51.210;2.934;2022-11-24T04:41:46;18.17;;;2.50;;
18732;SDS011;9495;51.210;2.934;2022-11-24T04:44:15;18.67;;;2.40;;
18732;SDS011;9495;51.210;2.934;2022-11-24T04:46:43;12.57;;;2.00;;
18732;SDS011;9495;51.210;2.934;2022-11-24T04:49:12;16.37;;;2.57;;
18732;SDS011;9495;51.210;2.934;2022-11-24T04:51:40;15.43;;;2.70;;
18732;SDS011;9495;51.210;2.934;2022-11-24T04:54:09;17.37;;;3.10;;
18732;SDS011;9495;51.210;2.934;2022-11-24T04:56:39;11.20;;;2.13;;
18732;SDS011;9495;51.210;2.934;2022-11-24T04:59:10;13.07;;;2.20;;
18732;SDS011;9495;51.210;2.934;2022-11-24T05:01:40;15.53;;;2.43;;
18732;SDS011;9495;51.210;2.934;2022-11-24T05:04:08;21.97;;;3.30;;
18732;SDS011;9495;51.210;2.934;2022-11-24T05:06:37;20.50;;;2.80;;
18732;SDS011;9495;51.210;2.934;2022-11-24T05:09:06;20.23;;;3.20;;
18732;SDS011;9495;51.210;2.934;2022-11-24T05:11:35;14.23;;;3.20;;
18732;SDS011;9495;51.210;2.934;2022-11-24T05:14:03;18.33;;;2.83;;
18732;SDS011;9495;51.210;2.934;2022-11-24T05:16:33;19.73;;;2.97;;
18732;SDS011;9495;51.210;2.934;2022-11-24T05:19:02;17.17;;;3.07;;
18732;SDS011;9495;51.210;2.934;2022-11-24T05:21:31;13.43;;;2.77;;
18732;SDS011;9495;51.210;2.934;2022-11-24T05:23:59;12.30;;;2.73;;
18732;SDS011;9495;51.210;2.934;2022-11-24T05:26:28;20.10;;;2.93;;
18732;SDS011;9495;51.210;2.934;2022-11-24T05:28:56;19.10;;;3.50;;
18732;SDS011;9495;51.210;2.934;2022-11-24T05:31:24;18.77;;;3.47;;
18732;SDS011;9495;51.210;2.934;2022-11-24T05:33:54;21.00;;;3.13;;
18732;SDS011;9495;51.210;2.934;2022-11-24T05:36:22;19.17;;;2.83;;
18732;SDS011;9495;51.210;2.934;2022-11-24T05:39:08;20.53;;;3.67;;
18732;SDS011;9495;51.210;2.934;2022-11-24T05:41:36;16.03;;;3.10;;
18732;SDS011;9495;51.210;2.934;2022-11-24T05:44:05;14.40;;;2.90;;
18732;SDS011;9495;51.210;2.934;2022-11-24T05:46:33;16.77;;;3.23;;
18732;SDS011;9495;51.210;2.934;2022-11-24T05:49:02;15.30;;;3.13;;
18732;SDS011;9495;51.210;2.934;2022-11-24T05:51:31;17.10;;;2.80;;
18732;SDS011;9495;51.210;2.934;2022-11-24T05:53:59;13.77;;;2.77;;
18732;SDS011;9495;51.210;2.934;2022-11-24T05:56:28;20.90;;;2.83;;
18732;SDS011;9495;51.210;2.934;2022-11-24T05:58:56;26.27;;;3.90;;
18732;SDS011;9495;51.210;2.934;2022-11-24T06:01:25;16.73;;;3.87;;
18732;SDS011;9495;51.210;2.934;2022-11-24T06:03:53;23.63;;;4.00;;
18732;SDS011;9495;51.210;2.934;2022-11-24T06:06:23;14.30;;;3.20;;
18732;SDS011;9495;51.210;2.934;2022-11-24T06:08:51;18.57;;;2.80;;
18732;SDS011;9495;51.210;2.934;2022-11-24T06:11:19;15.20;;;2.53;;
18732;SDS011;9495;51.210;2.934;2022-11-24T06:13:48;17.33;;;3.17;;
18732;SDS011;9495;51.210;2.934;2022-11-24T06:16:17;19.10;;;3.37;;
18732;SDS011;9495;51.210;2.934;2022-11-24T06:18:45;21.93;;;3.33;;
18732;SDS011;9495;51.210;2.934;2022-11-24T06:21:13;19.20;;;2.97;;
18732;SDS011;9495;51.210;2.934;2022-11-24T06:23:43;19.37;;;3.50;;
18732;SDS011;9495;51.210;2.934;2022-11-24T06:26:14;19.37;;;3.63;;
18732;SDS011;9495;51.210;2.934;2022-11-24T06:28:43;23.93;;;2.90;;
18732;SDS011;9495;51.210;2.934;2022-11-24T06:31:12;20.13;;;3.77;;
18732;SDS011;9495;51.210;2.934;2022-11-24T06:33:40;25.17;;;3.37;;
18732;SDS011;9495;51.210;2.934;2022-11-24T06:36:09;22.47;;;3.60;;
18732;SDS011;9495;51.210;2.934;2022-11-24T06:38:39;15.73;;;3.00;;
18732;SDS011;9495;51.210;2.934;2022-11-24T06:41:10;22.97;;;2.80;;
18732;SDS011;9495;51.210;2.934;2022-11-24T06:43:40;19.83;;;3.13;;
18732;SDS011;9495;51.210;2.934;2022-11-24T06:46:08;20.00;;;2.87;;
18732;SDS011;9495;51.210;2.934;2022-11-24T06:48:37;22.63;;;2.90;;
18732;SDS011;9495;51.210;2.934;2022-11-24T06:51:06;13.03;;;2.73;;
18732;SDS011;9495;51.210;2.934;2022-11-24T06:53:37;19.97;;;3.03;;
18732;SDS011;9495;51.210;2.934;2022-11-24T06:56:06;14.73;;;3.00;;
18732;SDS011;9495;51.210;2.934;2022-11-24T06:58:43;19.00;;;3.20;;
18732;SDS011;9495;51.210;2.934;2022-11-24T07:01:14;17.37;;;3.50;;
18732;SDS011;9495;51.210;2.934;2022-11-24T07:03:42;24.00;;;4.20;;
18732;SDS011;9495;51.210;2.934;2022-11-24T07:06:12;15.10;;;3.40;;
18732;SDS011;9495;51.210;2.934;2022-11-24T07:08:40;19.83;;;3.33;;
18732;SDS011;9495;51.210;2.934;2022-11-24T07:11:09;21.60;;;4.10;;
18732;SDS011;9495;51.210;2.934;2022-11-24T07:13:38;21.20;;;3.17;;
18732;SDS011;9495;51.210;2.934;2022-11-24T07:16:12;24.60;;;3.43;;
18732;SDS011;9495;51.210;2.934;2022-11-24T07:18:41;20.53;;;3.00;;
18732;SDS011;9495;51.210;2.934;2022-11-24T07:21:10;21.83;;;3.80;;
18732;SDS011;9495;51.210;2.934;2022-11-24T07:23:39;24.73;;;3.60;;
18732;SDS011;9495;51.210;2.934;2022-11-24T07:26:08;28.77;;;4.13;;
18732;SDS011;9495;51.210;2.934;2022-11-24T07:28:37;25.30;;;4.23;;
18732;SDS011;9495;51.210;2.934;2022-11-24T07:31:05;23.70;;;4.13;;
18732;SDS011;9495;51.210;2.934;2022-11-24T07:33:35;25.53;;;4.63;;
18732;SDS011;9495;51.210;2.934;2022-11-24T07:36:05;20.47;;;3.83;;
18732;SDS011;9495;51.210;2.934;2022-11-24T07:38:34;20.43;;;3.57;;
18732;SDS011;9495;51.210;2.934;2022-11-24T07:41:03;24.17;;;4.00;;
18732;SDS011;9495;51.210;2.934;2022-11-24T07:43:32;22.40;;;3.60;;
18732;SDS011;9495;51.210;2.934;2022-11-24T07:46:02;18.60;;;3.43;;
18732;SDS011;9495;51.210;2.934;2022-11-24T07:48:31;25.30;;;4.00;;
18732;SDS011;9495;51.210;2.934;2022-11-24T07:51:01;24.10;;;4.03;;
18732;SDS011;9495;51.210;2.934;2022-11-24T07:53:30;16.80;;;3.80;;
18732;SDS011;9495;51.210;2.934;2022-11-24T07:56:00;23.73;;;4.43;;
18732;SDS011;9495;51.210;2.934;2022-11-24T07:58:32;24.30;;;5.03;;
18732;SDS011;9495;51.210;2.934;2022-11-24T08:01:07;28.33;;;5.20;;
18732;SDS011;9495;51.210;2.934;2022-11-24T08:03:38;20.70;;;4.47;;
18732;SDS011;9495;51.210;2.934;2022-11-24T08:06:08;25.53;;;5.03;;
18732;SDS011;9495;51.210;2.934;2022-11-24T08:08:57;27.17;;;4.13;;
18732;SDS011;9495;51.210;2.934;2022-11-24T08:11:26;27.10;;;5.13;;
18732;SDS011;9495;51.210;2.934;2022-11-24T08:13:57;21.43;;;3.73;;
18732;SDS011;9495;51.210;2.934;2022-11-24T08:16:25;27.60;;;4.83;;
18732;SDS011;9495;51.210;2.934;2022-11-24T08:18:54;19.97;;;3.97;;
18732;SDS011;9495;51.210;2.934;2022-11-24T08:21:24;21.50;;;4.77;;
18732;SDS011;9495;51.210;2.934;2022-11-24T08:23:53;26.73;;;5.53;;
18732;SDS011;9495;51.210;2.934;2022-11-24T08:26:22;28.57;;;5.30;;
18732;SDS011;9495;51.210;2.934;2022-11-24T08:28:52;23.50;;;5.07;;
18732;SDS011;9495;51.210;2.934;2022-11-24T08:31:22;20.47;;;5.20;;
18732;SDS011;9495;51.210;2.934;2022-11-24T08:33:53;17.87;;;4.27;;
18732;SDS011;9495;51.210;2.934;2022-11-24T08:36:23;28.37;;;5.00;;
18732;SDS011;9495;51.210;2.934;2022-11-24T08:38:53;18.27;;;3.97;;
18732;SDS011;9495;51.210;2.934;2022-11-24T08:41:21;18.47;;;4.30;;
18732;SDS011;9495;51.210;2.934;2022-11-24T08:43:50;25.73;;;4.70;;
18732;SDS011;9495;51.210;2.934;2022-11-24T08:46:19;21.57;;;4.23;;
18732;SDS011;9495;51.210;2.934;2022-11-24T08:48:49;20.37;;;3.80;;
18732;SDS011;9495;51.210;2.934;2022-11-24T08:51:19;25.47;;;4.23;;
18732;SDS011;9495;51.210;2.934;2022-11-24T08:53:52;24.30;;;3.90;;
18732;SDS011;9495;51.210;2.934;2022-11-24T08:56:21;15.53;;;3.60;;
18732;SDS011;9495;51.210;2.934;2022-11-24T08:58:50;17.23;;;3.93;;
18732;SDS011;9495;51.210;2.934;2022-11-24T09:01:19;19.67;;;4.27;;
18732;SDS011;9495;51.210;2.934;2022-11-24T09:03:48;22.27;;;4.50;;
18732;SDS011;9495;51.210;2.934;2022-11-24T09:06:18;23.17;;;4.40;;
18732;SDS011;9495;51.210;2.934;2022-11-24T09:08:50;17.23;;;4.13;;
18732;SDS011;9495;51.210;2.934;2022-11-24T09:11:20;29.30;;;5.17;;
18732;SDS011;9495;51.210;2.934;2022-11-24T09:13:49;23.53;;;4.50;;
18732;SDS011;9495;51.210;2.934;2022-11-24T09:16:18;20.67;;;4.27;;
18732;SDS011;9495;51.210;2.934;2022-11-24T09:18:53;19.10;;;3.83;;
18732;SDS011;9495;51.210;2.934;2022-11-24T09:21:22;25.20;;;4.43;;
18732;SDS011;9495;51.210;2.934;2022-11-24T09:23:53;13.83;;;4.33;;
18732;SDS011;9495;51.210;2.934;2022-11-24T09:26:22;22.13;;;4.50;;
18732;SDS011;9495;51.210;2.934;2022-11-24T09:28:51;24.30;;;4.97;;
18732;SDS011;9495;51.210;2.934;2022-11-24T09:31:21;23.00;;;4.27;;
18732;SDS011;9495;51.210;2.934;2022-11-24T09:33:50;18.93;;;4.33;;
18732;SDS011;9495;51.210;2.934;2022-11-24T09:36:20;20.47;;;4.73;;
18732;SDS011;9495;51.210;2.934;2022-11-24T09:38:48;19.13;;;4.97;;
18732;SDS011;9495;51.210;2.934;2022-11-24T09:41:29;19.90;;;4.57;;
18732;SDS011;9495;51.210;2.934;2022-11-24T09:44:09;15.97;;;3.90;;
18732;SDS011;9495;51.210;2.934;2022-11-24T09:47:05;18.97;;;3.50;;
18732;SDS011;9495;51.210;2.934;2022-11-24T09:49:41;10.90;;;2.70;;
18732;SDS011;9495;51.210;2.934;2022-11-24T09:52:17;17.93;;;3.63;;
18732;SDS011;9495;51.210;2.934;2022-11-24T09:54:56;12.80;;;2.90;;
18732;SDS011;9495;51.210;2.934;2022-11-24T09:57:28;14.57;;;3.07;;
18732;SDS011;9495;51.210;2.934;2022-11-24T10:00:06;12.73;;;2.83;;
18732;SDS011;9495;51.210;2.934;2022-11-24T10:02:39;13.00;;;3.03;;
18732;SDS011;9495;51.210;2.934;2022-11-24T10:05:15;13.00;;;3.03;;
18732;SDS011;9495;51.210;2.934;2022-11-24T10:07:47;17.33;;;3.65;;
18732;SDS011;9495;51.210;2.934;2022-11-24T10:10:22;14.07;;;2.93;;
18732;SDS011;9495;51.210;2.934;2022-11-24T10:12:58;13.93;;;2.63;;
18732;SDS011;9495;51.210;2.934;2022-11-24T10:15:36;14.90;;;3.03;;
18732;SDS011;9495;51.210;2.934;2022-11-24T10:18:14;15.90;;;3.95;;
18732;SDS011;9495;51.210;2.934;2022-11-24T10:21:04;12.77;;;3.03;;
18732;SDS011;9495;51.210;2.934;2022-11-24T10:23:53;12.23;;;3.20;;
18732;SDS011;9495;51.210;2.934;2022-11-24T10:26:34;13.85;;;2.97;;
18732;SDS011;9495;51.210;2.934;2022-11-24T10:29:09;15.63;;;3.10;;
18732;SDS011;9495;51.210;2.934;2022-11-24T10:31:53;16.58;;;4.15;;
18732;SDS011;9495;51.210;2.934;2022-11-24T10:34:24;15.48;;;3.55;;
18732;SDS011;9495;51.210;2.934;2022-11-24T10:36:57;15.13;;;3.50;;
18732;SDS011;9495;51.210;2.934;2022-11-24T10:39:30;18.50;;;3.97;;
18732;SDS011;9495;51.210;2.934;2022-11-24T10:42:04;19.08;;;3.40;;
18732;SDS011;9495;51.210;2.934;2022-11-24T10:44:40;12.70;;;3.50;;
18732;SDS011;9495;51.210;2.934;2022-11-24T10:47:14;13.40;;;2.90;;
18732;SDS011;9495;51.210;2.934;2022-11-24T10:49:47;20.48;;;4.03;;
18732;SDS011;9495;51.210;2.934;2022-11-24T10:52:20;19.20;;;3.90;;
18732;SDS011;9495;51.210;2.934;2022-11-24T10:54:53;13.52;;;3.20;;
18732;SDS011;9495;51.210;2.934;2022-11-24T10:57:26;12.55;;;3.40;;
18732;SDS011;9495;51.210;2.934;2022-11-24T10:59:57;14.23;;;3.20;;
18732;SDS011;9495;51.210;2.934;2022-11-24T11:02:30;14.80;;;3.47;;
18732;SDS011;9495;51.210;2.934;2022-11-24T11:08:18;21.65;;;4.00;;
18732;SDS011;9495;51.210;2.934;2022-11-24T11:10:48;16.38;;;3.17;;
18732;SDS011;9495;51.210;2.934;2022-11-24T11:13:27;16.95;;;3.72;;
18732;SDS011;9495;51.210;2.934;2022-11-24T11:15:58;12.38;;;2.45;;
18732;SDS011;9495;51.210;2.934;2022-11-24T11:18:33;17.25;;;3.17;;
18732;SDS011;9495;51.210;2.934;2022-11-24T11:21:02;20.92;;;3.72;;
18732;SDS011;9495;51.210;2.934;2022-11-24T11:23:32;15.20;;;3.47;;
18732;SDS011;9495;51.210;2.934;2022-11-24T11:26:21;15.05;;;3.35;;
18732;SDS011;9495;51.210;2.934;2022-11-24T11:28:59;14.73;;;3.55;;
18732;SDS011;9495;51.210;2.934;2022-11-24T11:32:03;17.30;;;3.90;;
18732;SDS011;9495;51.210;2.934;2022-11-24T11:35:04;17.95;;;3.72;;
18732;SDS011;9495;51.210;2.934;2022-11-24T11:37:33;21.15;;;3.70;;
18732;SDS011;9495;51.210;2.934;2022-11-24T11:40:01;14.18;;;3.28;;
18732;SDS011;9495;51.210;2.934;2022-11-24T11:42:37;16.88;;;3.47;;
18732;SDS011;9495;51.210;2.934;2022-11-24T11:45:30;13.35;;;3.70;;
18732;SDS011;9495;51.210;2.934;2022-11-24T11:48:08;13.05;;;2.70;;
18732;SDS011;9495;51.210;2.934;2022-11-24T11:50:48;17.00;;;3.75;;
18732;SDS011;9495;51.210;2.934;2022-11-24T11:53:39;19.38;;;4.00;;
18732;SDS011;9495;51.210;2.934;2022-11-24T11:56:14;19.88;;;4.63;;
18732;SDS011;9495;51.210;2.934;2022-11-24T11:58:56;23.55;;;5.38;;
18732;SDS011;9495;51.210;2.934;2022-11-24T12:05:16;22.15;;;3.88;;
18732;SDS011;9495;51.210;2.934;2022-11-24T12:07:55;17.70;;;4.45;;
18732;SDS011;9495;51.210;2.934;2022-11-24T12:10:38;21.10;;;3.75;;
18732;SDS011;9495;51.210;2.934;2022-11-24T12:13:26;13.13;;;3.15;;
18732;SDS011;9495;51.210;2.934;2022-11-24T12:16:11;20.45;;;3.80;;
18732;SDS011;9495;51.210;2.934;2022-11-24T12:18:48;25.17;;;4.70;;
18732;SDS011;9495;51.210;2.934;2022-11-24T12:21:28;22.85;;;4.22;;
18732;SDS011;9495;51.210;2.934;2022-11-24T12:24:03;19.27;;;4.28;;
18732;SDS011;9495;51.210;2.934;2022-11-24T12:26:41;20.73;;;3.90;;
18732;SDS011;9495;51.210;2.934;2022-11-24T12:29:31;20.40;;;3.88;;
18732;SDS011;9495;51.210;2.934;2022-11-24T12:32:20;21.08;;;4.22;;
18732;SDS011;9495;51.210;2.934;2022-11-24T12:34:59;18.55;;;3.50;;
18732;SDS011;9495;51.210;2.934;2022-11-24T12:37:41;18.92;;;3.97;;
18732;SDS011;9495;51.210;2.934;2022-11-24T12:40:21;21.65;;;4.07;;
18732;SDS011;9495;51.210;2.934;2022-11-24T12:42:58;19.10;;;3.50;;
18732;SDS011;9495;51.210;2.934;2022-11-24T12:45:37;18.70;;;4.07;;
18732;SDS011;9495;51.210;2.934;2022-11-24T12:48:20;15.05;;;4.22;;
18732;SDS011;9495;51.210;2.934;2022-11-24T12:51:10;18.00;;;4.53;;
18732;SDS011;9495;51.210;2.934;2022-11-24T12:53:44;18.88;;;3.67;;
18732;SDS011;9495;51.210;2.934;2022-11-24T12:56:14;21.75;;;4.68;;
18732;SDS011;9495;51.210;2.934;2022-11-24T12:58:50;17.17;;;3.78;;
18732;SDS011;9495;51.210;2.934;2022-11-24T13:01:27;21.80;;;4.43;;
18732;SDS011;9495;51.210;2.934;2022-11-24T13:04:04;16.15;;;3.85;;
18732;SDS011;9495;51.210;2.934;2022-11-24T13:06:42;17.52;;;4.00;;
18732;SDS011;9495;51.210;2.934;2022-11-24T13:09:19;19.30;;;3.92;;
18732;SDS011;9495;51.210;2.934;2022-11-24T13:11:48;20.73;;;4.20;;
18732;SDS011;9495;51.210;2.934;2022-11-24T13:14:20;20.13;;;4.20;;
18732;SDS011;9495;51.210;2.934;2022-11-24T13:16:52;17.98;;;4.22;;
18732;SDS011;9495;51.210;2.934;2022-11-24T13:19:43;18.65;;;3.53;;
18732;SDS011;9495;51.210;2.934;2022-11-24T13:22:13;19.90;;;3.80;;
18732;SDS011;9495;51.210;2.934;2022-11-24T13:24:44;27.37;;;3.97;;
18732;SDS011;9495;51.210;2.934;2022-11-24T13:27:42;16.77;;;3.70;;
18732;SDS011;9495;51.210;2.934;2022-11-24T13:33:26;22.30;;;3.60;;
18732;SDS011;9495;51.210;2.934;2022-11-24T13:38:58;21.73;;;3.42;;
18732;SDS011;9495;51.210;2.934;2022-11-24T13:44:56;27.20;;;4.30;;
18732;SDS011;9495;51.210;2.934;2022-11-24T13:47:32;19.67;;;4.35;;
18732;SDS011;9495;51.210;2.934;2022-11-24T13:50:03;24.98;;;4.03;;
18732;SDS011;9495;51.210;2.934;2022-11-24T13:52:50;20.58;;;4.90;;
18732;SDS011;9495;51.210;2.934;2022-11-24T13:55:30;20.48;;;4.00;;
18732;SDS011;9495;51.210;2.934;2022-11-24T13:58:17;19.55;;;4.32;;
18732;SDS011;9495;51.210;2.934;2022-11-24T14:01:01;20.77;;;3.33;;
18732;SDS011;9495;51.210;2.934;2022-11-24T14:03:42;19.77;;;4.40;;
18732;SDS011;9495;51.210;2.934;2022-11-24T14:06:43;21.52;;;4.28;;
18732;SDS011;9495;51.210;2.934;2022-11-24T14:09:18;20.27;;;4.43;;
18732;SDS011;9495;51.210;2.934;2022-11-24T14:14:40;23.92;;;5.68;;
18732;SDS011;9495;51.210;2.934;2022-11-24T14:17:15;24.15;;;4.15;;
18732;SDS011;9495;51.210;2.934;2022-11-24T14:19:46;18.38;;;4.43;;
18732;SDS011;9495;51.210;2.934;2022-11-24T14:22:16;17.88;;;4.13;;
18732;SDS011;9495;51.210;2.934;2022-11-24T14:24:53;15.75;;;3.90;;
18732;SDS011;9495;51.210;2.934;2022-11-24T14:27:24;20.05;;;4.10;;
18732;SDS011;9495;51.210;2.934;2022-11-24T14:29:56;24.67;;;4.53;;
18732;SDS011;9495;51.210;2.934;2022-11-24T14:32:27;25.85;;;5.13;;
18732;SDS011;9495;51.210;2.934;2022-11-24T14:34:55;20.65;;;5.20;;
18732;SDS011;9495;51.210;2.934;2022-11-24T14:37:24;25.55;;;5.00;;
18732;SDS011;9495;51.210;2.934;2022-11-24T14:39:55;18.58;;;3.65;;
18732;SDS011;9495;51.210;2.934;2022-11-24T14:42:26;19.52;;;4.47;;
18732;SDS011;9495;51.210;2.934;2022-11-24T14:44:55;23.90;;;4.43;;
18732;SDS011;9495;51.210;2.934;2022-11-24T14:47:27;22.63;;;4.97;;
18732;SDS011;9495;51.210;2.934;2022-11-24T14:50:04;22.63;;;4.50;;
18732;SDS011;9495;51.210;2.934;2022-11-24T14:52:40;23.53;;;4.50;;
18732;SDS011;9495;51.210;2.934;2022-11-24T14:55:22;28.70;;;6.10;;
18732;SDS011;9495;51.210;2.934;2022-11-24T14:57:54;24.20;;;5.37;;
18732;SDS011;9495;51.210;2.934;2022-11-24T15:00:27;24.73;;;5.57;;
18732;SDS011;9495;51.210;2.934;2022-11-24T15:03:11;26.70;;;5.67;;
18732;SDS011;9495;51.210;2.934;2022-11-24T15:05:49;22.10;;;4.67;;
18732;SDS011;9495;51.210;2.934;2022-11-24T15:08:18;23.65;;;5.45;;
18732;SDS011;9495;51.210;2.934;2022-11-24T15:10:47;20.30;;;4.18;;
18732;SDS011;9495;51.210;2.934;2022-11-24T15:13:22;20.52;;;5.53;;
18732;SDS011;9495;51.210;2.934;2022-11-24T15:15:52;24.83;;;5.45;;
18732;SDS011;9495;51.210;2.934;2022-11-24T15:18:31;18.67;;;5.03;;
18732;SDS011;9495;51.210;2.934;2022-11-24T15:21:03;19.83;;;4.28;;
18732;SDS011;9495;51.210;2.934;2022-11-24T15:23:32;20.55;;;5.07;;
18732;SDS011;9495;51.210;2.934;2022-11-24T15:28:57;23.17;;;5.85;;
18732;SDS011;9495;51.210;2.934;2022-11-24T15:31:25;20.95;;;5.32;;
18732;SDS011;9495;51.210;2.934;2022-11-24T15:33:55;25.33;;;6.57;;
18732;SDS011;9495;51.210;2.934;2022-11-24T15:36:24;19.87;;;5.30;;
18732;SDS011;9495;51.210;2.934;2022-11-24T15:38:52;20.45;;;5.07;;
18732;SDS011;9495;51.210;2.934;2022-11-24T15:41:21;25.23;;;5.38;;
18732;SDS011;9495;51.210;2.934;2022-11-24T15:43:54;18.30;;;4.80;;